sensor_id;sensor_type;location;lat;lon;timestamp;temperature;humidity
15143;DHT22;7672;50.834;6.286;2023-06-04T00:01:24;15.20;94.50
15143;DHT22;7672;50.834;6.286;2023-06-04T00:03:51;15.20;94.60
15143;DHT22;7672;50.834;6.286;2023-06-04T00:06:19;15.10;94.70
15143;DHT22;7672;50.834;6.286;2023-06-04T00:08:47;15.10;95.10
15143;DHT22;7672;50.834;6.286;2023-06-04T00:11:14;15.00;95.40
15143;DHT22;7672;50.834;6.286;2023-06-04T00:13:41;15.20;95.70
15143;DHT22;7672;50.834;6.286;2023-06-04T00:16:08;14.90;96.20
15143;DHT22;7672;50.834;6.286;2023-06-04T00:18:35;14.80;96.20
15143;DHT22;7672;50.834;6.286;2023-06-04T00:21:02;14.80;96.20
15143;DHT22;7672;50.834;6.286;2023-06-04T00:23:29;14.70;96.60
15143;DHT22;7672;50.834;6.286;2023-06-04T00:25:57;14.60;96.80
15143;DHT22;7672;50.834;6.286;2023-06-04T00:28:24;14.60;97.30
15143;DHT22;7672;50.834;6.286;2023-06-04T00:30:51;14.50;97.60
15143;DHT22;7672;50.834;6.286;2023-06-04T00:33:18;14.50;97.90
15143;DHT22;7672;50.834;6.286;2023-06-04T00:35:46;14.40;98.40
15143;DHT22;7672;50.834;6.286;2023-06-04T00:38:15;14.40;98.90
15143;DHT22;7672;50.834;6.286;2023-06-04T00:40:42;14.40;99.10
15143;DHT22;7672;50.834;6.286;2023-06-04T00:43:09;14.30;99.20
15143;DHT22;7672;50.834;6.286;2023-06-04T00:45:37;14.20;99.40
15143;DHT22;7672;50.834;6.286;2023-06-04T00:48:04;14.20;99.70
15143;DHT22;7672;50.834;6.286;2023-06-04T00:50:32;14.00;99.90
15143;DHT22;7672;50.834;6.286;2023-06-04T00:52:59;14.10;99.90
15143;DHT22;7672;50.834;6.286;2023-06-04T00:55:26;14.00;99.90
15143;DHT22;7672;50.834;6.286;2023-06-04T00:57:54;13.90;99.90
15143;DHT22;7672;50.834;6.286;2023-06-04T01:00:21;13.90;99.90
15143;DHT22;7672;50.834;6.286;2023-06-04T01:02:53;13.90;99.90
15143;DHT22;7672;50.834;6.286;2023-06-04T01:05:47;13.80;99.90
15143;DHT22;7672;50.834;6.286;2023-06-04T01:08:23;13.80;99.90
15143;DHT22;7672;50.834;6.286;2023-06-04T01:10:55;13.70;99.90
15143;DHT22;7672;50.834;6.286;2023-06-04T01:13:24;13.70;99.90
15143;DHT22;7672;50.834;6.286;2023-06-04T01:15:51;13.70;99.90
15143;DHT22;7672;50.834;6.286;2023-06-04T01:18:27;13.70;99.90
15143;DHT22;7672;50.834;6.286;2023-06-04T01:20:59;13.70;99.90
15143;DHT22;7672;50.834;6.286;2023-06-04T01:23:51;13.60;99.90
15143;DHT22;7672;50.834;6.286;2023-06-04T01:26:27;13.60;99.90
15143;DHT22;7672;50.834;6.286;2023-06-04T01:28:56;13.70;99.90
15143;DHT22;7672;50.834;6.286;2023-06-04T01:31:25;13.60;99.90
15143;DHT22;7672;50.834;6.286;2023-06-04T01:33:53;13.70;99.90
15143;DHT22;7672;50.834;6.286;2023-06-04T01:36:25;13.60;99.90
15143;DHT22;7672;50.834;6.286;2023-06-04T01:38:52;13.60;99.90
15143;DHT22;7672;50.834;6.286;2023-06-04T01:41:19;13.60;99.90
15143;DHT22;7672;50.834;6.286;2023-06-04T01:43:46;13.60;99.90
15143;DHT22;7672;50.834;6.286;2023-06-04T01:46:13;13.50;99.90
15143;DHT22;7672;50.834;6.286;2023-06-04T01:48:40;13.60;99.90
15143;DHT22;7672;50.834;6.286;2023-06-04T01:51:07;13.50;99.90
15143;DHT22;7672;50.834;6.286;2023-06-04T01:53:35;13.50;99.90
15143;DHT22;7672;50.834;6.286;2023-06-04T01:56:02;13.40;99.90
15143;DHT22;7672;50.834;6.286;2023-06-04T01:58:29;13.40;99.90
15143;DHT22;7672;50.834;6.286;2023-06-04T02:00:58;13.30;99.90
15143;DHT22;7672;50.834;6.286;2023-06-04T02:03:27;13.30;99.90
15143;DHT22;7672;50.834;6.286;2023-06-04T02:05:54;13.20;99.90
15143;DHT22;7672;50.834;6.286;2023-06-04T02:08:22;13.20;99.90
15143;DHT22;7672;50.834;6.286;2023-06-04T02:10:52;13.50;99.90
15143;DHT22;7672;50.834;6.286;2023-06-04T02:13:19;13.10;99.90
15143;DHT22;7672;50.834;6.286;2023-06-04T02:15:46;13.10;99.90
15143;DHT22;7672;50.834;6.286;2023-06-04T02:18:20;13.10;99.90
15143;DHT22;7672;50.834;6.286;2023-06-04T02:20:51;13.20;99.90
15143;DHT22;7672;50.834;6.286;2023-06-04T02:23:19;13.10;99.90
15143;DHT22;7672;50.834;6.286;2023-06-04T02:25:47;13.00;99.90
15143;DHT22;7672;50.834;6.286;2023-06-04T02:28:15;13.00;99.90
15143;DHT22;7672;50.834;6.286;2023-06-04T02:30:44;13.00;99.90
15143;DHT22;7672;50.834;6.286;2023-06-04T02:33:13;13.00;99.90
15143;DHT22;7672;50.834;6.286;2023-06-04T02:35:41;13.00;99.90
15143;DHT22;7672;50.834;6.286;2023-06-04T02:38:08;13.00;99.90
15143;DHT22;7672;50.834;6.286;2023-06-04T02:40:35;13.00;99.90
15143;DHT22;7672;50.834;6.286;2023-06-04T02:43:02;13.40;99.90
15143;DHT22;7672;50.834;6.286;2023-06-04T02:45:29;13.00;99.90
15143;DHT22;7672;50.834;6.286;2023-06-04T02:47:57;13.00;99.90
15143;DHT22;7672;50.834;6.286;2023-06-04T02:50:24;13.00;99.90
15143;DHT22;7672;50.834;6.286;2023-06-04T02:52:51;12.90;99.90
15143;DHT22;7672;50.834;6.286;2023-06-04T02:55:21;12.90;99.90
15143;DHT22;7672;50.834;6.286;2023-06-04T02:57:49;12.90;99.90
15143;DHT22;7672;50.834;6.286;2023-06-04T03:00:21;12.90;99.90
15143;DHT22;7672;50.834;6.286;2023-06-04T03:02:48;12.90;99.90
15143;DHT22;7672;50.834;6.286;2023-06-04T03:05:16;13.10;99.90
15143;DHT22;7672;50.834;6.286;2023-06-04T03:07:46;12.80;99.90
15143;DHT22;7672;50.834;6.286;2023-06-04T03:10:14;12.70;99.90
15143;DHT22;7672;50.834;6.286;2023-06-04T03:12:42;13.10;99.90
15143;DHT22;7672;50.834;6.286;2023-06-04T03:15:10;12.70;99.90
15143;DHT22;7672;50.834;6.286;2023-06-04T03:17:37;12.60;99.90
15143;DHT22;7672;50.834;6.286;2023-06-04T03:20:05;12.60;99.90
15143;DHT22;7672;50.834;6.286;2023-06-04T03:22:35;12.60;99.90
15143;DHT22;7672;50.834;6.286;2023-06-04T03:25:03;12.60;99.90
15143;DHT22;7672;50.834;6.286;2023-06-04T03:27:32;12.60;99.90
15143;DHT22;7672;50.834;6.286;2023-06-04T03:30:00;12.60;99.90
15143;DHT22;7672;50.834;6.286;2023-06-04T03:32:34;12.60;99.90
15143;DHT22;7672;50.834;6.286;2023-06-04T03:35:02;12.90;99.90
15143;DHT22;7672;50.834;6.286;2023-06-04T03:37:31;12.50;99.90
15143;DHT22;7672;50.834;6.286;2023-06-04T03:39:59;12.50;99.90
15143;DHT22;7672;50.834;6.286;2023-06-04T03:42:27;12.60;99.90
15143;DHT22;7672;50.834;6.286;2023-06-04T03:44:55;12.60;99.90
15143;DHT22;7672;50.834;6.286;2023-06-04T03:47:25;12.60;99.90
15143;DHT22;7672;50.834;6.286;2023-06-04T03:49:52;12.50;99.90
15143;DHT22;7672;50.834;6.286;2023-06-04T03:52:19;12.50;99.90
15143;DHT22;7672;50.834;6.286;2023-06-04T03:54:46;12.50;99.90
15143;DHT22;7672;50.834;6.286;2023-06-04T03:57:13;12.60;99.90
15143;DHT22;7672;50.834;6.286;2023-06-04T03:59:41;12.60;99.90
15143;DHT22;7672;50.834;6.286;2023-06-04T04:02:08;12.60;99.90
15143;DHT22;7672;50.834;6.286;2023-06-04T04:04:37;12.60;99.90
15143;DHT22;7672;50.834;6.286;2023-06-04T04:07:04;12.70;99.90
15143;DHT22;7672;50.834;6.286;2023-06-04T04:09:32;12.80;99.90
15143;DHT22;7672;50.834;6.286;2023-06-04T04:11:59;12.90;99.90
15143;DHT22;7672;50.834;6.286;2023-06-04T04:14:26;13.50;99.90
15143;DHT22;7672;50.834;6.286;2023-06-04T04:16:53;13.10;99.90
15143;DHT22;7672;50.834;6.286;2023-06-04T04:19:21;13.20;99.90
15143;DHT22;7672;50.834;6.286;2023-06-04T04:21:48;13.40;99.90
15143;DHT22;7672;50.834;6.286;2023-06-04T04:24:28;13.50;99.90
15143;DHT22;7672;50.834;6.286;2023-06-04T04:27:01;13.70;99.90
15143;DHT22;7672;50.834;6.286;2023-06-04T04:29:31;13.90;99.90
15143;DHT22;7672;50.834;6.286;2023-06-04T04:32:02;14.00;99.90
15143;DHT22;7672;50.834;6.286;2023-06-04T04:34:50;14.20;99.90
15143;DHT22;7672;50.834;6.286;2023-06-04T04:37:21;14.30;99.90
15143;DHT22;7672;50.834;6.286;2023-06-04T04:39:49;14.50;99.90
15143;DHT22;7672;50.834;6.286;2023-06-04T04:42:20;14.70;99.90
15143;DHT22;7672;50.834;6.286;2023-06-04T04:44:49;14.90;99.90
15143;DHT22;7672;50.834;6.286;2023-06-04T04:47:19;15.10;99.90
15143;DHT22;7672;50.834;6.286;2023-06-04T04:49:46;15.30;99.90
15143;DHT22;7672;50.834;6.286;2023-06-04T04:52:17;15.50;99.90
15143;DHT22;7672;50.834;6.286;2023-06-04T04:54:45;15.70;99.90
15143;DHT22;7672;50.834;6.286;2023-06-04T04:57:12;15.90;99.90
15143;DHT22;7672;50.834;6.286;2023-06-04T04:59:43;16.10;99.90
15143;DHT22;7672;50.834;6.286;2023-06-04T05:02:11;16.30;99.90
15143;DHT22;7672;50.834;6.286;2023-06-04T05:04:38;16.50;99.90
15143;DHT22;7672;50.834;6.286;2023-06-04T05:07:05;17.00;99.90
15143;DHT22;7672;50.834;6.286;2023-06-04T05:09:32;16.90;99.90
15143;DHT22;7672;50.834;6.286;2023-06-04T05:12:00;17.20;99.90
15143;DHT22;7672;50.834;6.286;2023-06-04T05:14:29;17.40;99.90
15143;DHT22;7672;50.834;6.286;2023-06-04T05:16:56;17.60;99.90
15143;DHT22;7672;50.834;6.286;2023-06-04T05:19:24;17.80;99.90
15143;DHT22;7672;50.834;6.286;2023-06-04T05:21:51;17.90;99.90
15143;DHT22;7672;50.834;6.286;2023-06-04T05:24:18;18.10;99.90
15143;DHT22;7672;50.834;6.286;2023-06-04T05:26:46;18.20;99.90
15143;DHT22;7672;50.834;6.286;2023-06-04T05:29:18;18.30;99.90
15143;DHT22;7672;50.834;6.286;2023-06-04T05:31:46;18.50;99.90
15143;DHT22;7672;50.834;6.286;2023-06-04T05:34:15;18.50;99.90
15143;DHT22;7672;50.834;6.286;2023-06-04T05:36:43;18.60;99.90
15143;DHT22;7672;50.834;6.286;2023-06-04T05:39:11;18.70;99.90
15143;DHT22;7672;50.834;6.286;2023-06-04T05:41:48;18.80;99.90
15143;DHT22;7672;50.834;6.286;2023-06-04T05:44:16;18.90;99.90
15143;DHT22;7672;50.834;6.286;2023-06-04T05:46:43;19.00;99.90
15143;DHT22;7672;50.834;6.286;2023-06-04T05:49:11;19.20;99.90
15143;DHT22;7672;50.834;6.286;2023-06-04T05:51:39;19.30;99.90
15143;DHT22;7672;50.834;6.286;2023-06-04T05:54:06;19.30;99.90
15143;DHT22;7672;50.834;6.286;2023-06-04T05:56:37;19.50;99.90
15143;DHT22;7672;50.834;6.286;2023-06-04T05:59:04;19.50;99.90
15143;DHT22;7672;50.834;6.286;2023-06-04T06:01:31;19.70;99.90
15143;DHT22;7672;50.834;6.286;2023-06-04T06:03:58;19.90;99.90
15143;DHT22;7672;50.834;6.286;2023-06-04T06:06:27;20.10;99.90
15143;DHT22;7672;50.834;6.286;2023-06-04T06:08:55;20.20;99.90
15143;DHT22;7672;50.834;6.286;2023-06-04T06:11:22;20.30;99.90
15143;DHT22;7672;50.834;6.286;2023-06-04T06:13:50;20.50;99.90
15143;DHT22;7672;50.834;6.286;2023-06-04T06:16:17;20.60;99.90
15143;DHT22;7672;50.834;6.286;2023-06-04T06:18:45;20.80;99.90
15143;DHT22;7672;50.834;6.286;2023-06-04T06:21:13;20.90;99.90
15143;DHT22;7672;50.834;6.286;2023-06-04T06:23:40;21.10;99.90
15143;DHT22;7672;50.834;6.286;2023-06-04T06:26:08;21.30;99.90
15143;DHT22;7672;50.834;6.286;2023-06-04T06:28:42;21.50;99.90
15143;DHT22;7672;50.834;6.286;2023-06-04T06:31:10;21.90;99.90
15143;DHT22;7672;50.834;6.286;2023-06-04T06:33:37;21.80;99.90
15143;DHT22;7672;50.834;6.286;2023-06-04T06:36:10;22.00;99.90
15143;DHT22;7672;50.834;6.286;2023-06-04T06:38:40;22.10;99.90
15143;DHT22;7672;50.834;6.286;2023-06-04T06:41:08;22.30;99.90
15143;DHT22;7672;50.834;6.286;2023-06-04T06:43:35;22.50;99.90
15143;DHT22;7672;50.834;6.286;2023-06-04T06:46:03;22.60;99.80
15143;DHT22;7672;50.834;6.286;2023-06-04T06:48:30;22.80;98.90
15143;DHT22;7672;50.834;6.286;2023-06-04T06:50:57;23.00;99.00
15143;DHT22;7672;50.834;6.286;2023-06-04T06:53:24;23.10;98.30
15143;DHT22;7672;50.834;6.286;2023-06-04T06:55:51;23.30;96.90
15143;DHT22;7672;50.834;6.286;2023-06-04T06:58:18;23.40;97.20
15143;DHT22;7672;50.834;6.286;2023-06-04T07:00:45;23.50;97.10
15143;DHT22;7672;50.834;6.286;2023-06-04T07:03:12;23.70;96.50
15143;DHT22;7672;50.834;6.286;2023-06-04T07:05:39;23.80;96.60
15143;DHT22;7672;50.834;6.286;2023-06-04T07:08:06;24.00;96.10
15143;DHT22;7672;50.834;6.286;2023-06-04T07:10:36;24.10;96.50
15143;DHT22;7672;50.834;6.286;2023-06-04T07:13:03;24.20;96.30
15143;DHT22;7672;50.834;6.286;2023-06-04T07:15:30;24.30;95.40
15143;DHT22;7672;50.834;6.286;2023-06-04T07:17:57;24.40;95.90
15143;DHT22;7672;50.834;6.286;2023-06-04T07:20:25;24.50;94.90
15143;DHT22;7672;50.834;6.286;2023-06-04T07:22:52;24.60;95.70
15143;DHT22;7672;50.834;6.286;2023-06-04T07:25:20;24.80;94.60
15143;DHT22;7672;50.834;6.286;2023-06-04T07:27:48;24.90;94.40
15143;DHT22;7672;50.834;6.286;2023-06-04T07:30:17;25.10;94.10
15143;DHT22;7672;50.834;6.286;2023-06-04T07:32:48;25.20;93.70
15143;DHT22;7672;50.834;6.286;2023-06-04T07:35:15;25.40;93.20
15143;DHT22;7672;50.834;6.286;2023-06-04T07:37:43;25.70;93.20
15143;DHT22;7672;50.834;6.286;2023-06-04T07:40:16;26.00;93.10
15143;DHT22;7672;50.834;6.286;2023-06-04T07:42:45;26.30;93.30
15143;DHT22;7672;50.834;6.286;2023-06-04T07:45:14;26.70;92.60
15143;DHT22;7672;50.834;6.286;2023-06-04T07:47:45;27.20;92.20
15143;DHT22;7672;50.834;6.286;2023-06-04T07:50:12;27.70;91.10
15143;DHT22;7672;50.834;6.286;2023-06-04T07:52:39;28.20;90.10
15143;DHT22;7672;50.834;6.286;2023-06-04T07:55:07;28.80;87.50
15143;DHT22;7672;50.834;6.286;2023-06-04T07:57:35;29.20;84.30
15143;DHT22;7672;50.834;6.286;2023-06-04T08:00:03;29.60;84.20
15143;DHT22;7672;50.834;6.286;2023-06-04T08:02:38;30.10;83.40
15143;DHT22;7672;50.834;6.286;2023-06-04T08:05:05;30.50;81.90
15143;DHT22;7672;50.834;6.286;2023-06-04T08:07:33;30.80;78.90
15143;DHT22;7672;50.834;6.286;2023-06-04T08:10:00;31.20;78.70
15143;DHT22;7672;50.834;6.286;2023-06-04T08:12:27;31.60;77.50
15143;DHT22;7672;50.834;6.286;2023-06-04T08:14:54;31.90;77.00
15143;DHT22;7672;50.834;6.286;2023-06-04T08:17:24;32.30;76.30
15143;DHT22;7672;50.834;6.286;2023-06-04T08:19:55;32.70;74.60
15143;DHT22;7672;50.834;6.286;2023-06-04T08:22:35;33.10;72.80
15143;DHT22;7672;50.834;6.286;2023-06-04T08:25:22;33.50;72.60
15143;DHT22;7672;50.834;6.286;2023-06-04T08:28:09;33.80;71.70
15143;DHT22;7672;50.834;6.286;2023-06-04T08:30:55;34.20;71.90
15143;DHT22;7672;50.834;6.286;2023-06-04T08:33:37;34.50;69.10
15143;DHT22;7672;50.834;6.286;2023-06-04T08:36:08;34.90;69.20
15143;DHT22;7672;50.834;6.286;2023-06-04T08:38:35;35.30;68.30
15143;DHT22;7672;50.834;6.286;2023-06-04T08:41:15;35.50;64.90
15143;DHT22;7672;50.834;6.286;2023-06-04T08:43:42;35.60;64.40
15143;DHT22;7672;50.834;6.286;2023-06-04T08:46:14;35.70;63.90
15143;DHT22;7672;50.834;6.286;2023-06-04T08:48:44;35.70;61.70
15143;DHT22;7672;50.834;6.286;2023-06-04T08:51:12;35.70;61.90
15143;DHT22;7672;50.834;6.286;2023-06-04T08:53:42;35.80;60.60
15143;DHT22;7672;50.834;6.286;2023-06-04T08:56:09;35.90;60.80
15143;DHT22;7672;50.834;6.286;2023-06-04T08:58:40;35.90;60.40
15143;DHT22;7672;50.834;6.286;2023-06-04T09:01:08;35.90;58.30
15143;DHT22;7672;50.834;6.286;2023-06-04T09:03:37;36.00;58.40
15143;DHT22;7672;50.834;6.286;2023-06-04T09:06:04;36.00;58.70
15143;DHT22;7672;50.834;6.286;2023-06-04T09:08:35;35.90;58.50
15143;DHT22;7672;50.834;6.286;2023-06-04T09:11:05;35.80;59.60
15143;DHT22;7672;50.834;6.286;2023-06-04T09:13:36;35.70;58.90
15143;DHT22;7672;50.834;6.286;2023-06-04T09:16:06;35.70;59.00
15143;DHT22;7672;50.834;6.286;2023-06-04T09:18:33;35.60;58.20
15143;DHT22;7672;50.834;6.286;2023-06-04T09:21:09;35.60;57.80
15143;DHT22;7672;50.834;6.286;2023-06-04T09:23:46;35.50;58.00
15143;DHT22;7672;50.834;6.286;2023-06-04T09:26:14;35.50;57.30
15143;DHT22;7672;50.834;6.286;2023-06-04T09:28:42;35.50;57.70
15143;DHT22;7672;50.834;6.286;2023-06-04T09:31:14;35.50;59.20
15143;DHT22;7672;50.834;6.286;2023-06-04T09:33:51;35.60;58.00
15143;DHT22;7672;50.834;6.286;2023-06-04T09:36:18;35.70;57.10
15143;DHT22;7672;50.834;6.286;2023-06-04T09:38:45;35.70;57.30
15143;DHT22;7672;50.834;6.286;2023-06-04T09:41:17;35.70;56.30
15143;DHT22;7672;50.834;6.286;2023-06-04T09:44:02;35.70;56.20
15143;DHT22;7672;50.834;6.286;2023-06-04T09:46:30;35.50;55.80
15143;DHT22;7672;50.834;6.286;2023-06-04T09:49:02;35.40;55.90
15143;DHT22;7672;50.834;6.286;2023-06-04T09:51:33;35.20;55.30
15143;DHT22;7672;50.834;6.286;2023-06-04T09:54:02;35.10;55.10
15143;DHT22;7672;50.834;6.286;2023-06-04T09:56:39;34.90;55.80
15143;DHT22;7672;50.834;6.286;2023-06-04T09:59:09;34.60;53.30
15143;DHT22;7672;50.834;6.286;2023-06-04T10:01:40;34.30;55.10
15143;DHT22;7672;50.834;6.286;2023-06-04T10:04:13;33.90;55.70
15143;DHT22;7672;50.834;6.286;2023-06-04T10:06:41;33.60;55.60
15143;DHT22;7672;50.834;6.286;2023-06-04T10:09:09;33.40;56.90
15143;DHT22;7672;50.834;6.286;2023-06-04T10:11:40;33.10;56.40
15143;DHT22;7672;50.834;6.286;2023-06-04T10:14:22;32.90;57.60
15143;DHT22;7672;50.834;6.286;2023-06-04T10:16:51;32.70;56.70
15143;DHT22;7672;50.834;6.286;2023-06-04T10:19:20;32.60;57.00
15143;DHT22;7672;50.834;6.286;2023-06-04T10:21:47;32.50;57.30
15143;DHT22;7672;50.834;6.286;2023-06-04T10:24:15;32.40;56.80
15143;DHT22;7672;50.834;6.286;2023-06-04T10:26:42;32.40;58.90
15143;DHT22;7672;50.834;6.286;2023-06-04T10:29:11;32.40;59.60
15143;DHT22;7672;50.834;6.286;2023-06-04T10:31:41;32.40;57.10
15143;DHT22;7672;50.834;6.286;2023-06-04T10:34:09;32.40;58.00
15143;DHT22;7672;50.834;6.286;2023-06-04T10:36:47;32.30;57.20
15143;DHT22;7672;50.834;6.286;2023-06-04T10:39:25;32.30;57.40
15143;DHT22;7672;50.834;6.286;2023-06-04T10:42:00;32.30;58.30
15143;DHT22;7672;50.834;6.286;2023-06-04T10:44:44;32.30;59.00
15143;DHT22;7672;50.834;6.286;2023-06-04T10:47:27;32.30;59.30
15143;DHT22;7672;50.834;6.286;2023-06-04T10:50:08;32.30;59.10
15143;DHT22;7672;50.834;6.286;2023-06-04T10:52:37;32.20;58.10
15143;DHT22;7672;50.834;6.286;2023-06-04T10:55:07;32.20;57.30
15143;DHT22;7672;50.834;6.286;2023-06-04T10:57:35;32.10;57.70
15143;DHT22;7672;50.834;6.286;2023-06-04T11:00:03;32.10;58.80
15143;DHT22;7672;50.834;6.286;2023-06-04T11:02:48;32.00;56.70
15143;DHT22;7672;50.834;6.286;2023-06-04T11:05:17;32.00;57.70
15143;DHT22;7672;50.834;6.286;2023-06-04T11:07:46;32.00;57.70
15143;DHT22;7672;50.834;6.286;2023-06-04T11:10:16;32.00;57.40
15143;DHT22;7672;50.834;6.286;2023-06-04T11:12:46;32.10;59.50
15143;DHT22;7672;50.834;6.286;2023-06-04T11:15:15;32.10;58.80
15143;DHT22;7672;50.834;6.286;2023-06-04T11:17:52;32.20;58.40
15143;DHT22;7672;50.834;6.286;2023-06-04T11:20:21;32.30;59.00
15143;DHT22;7672;50.834;6.286;2023-06-04T11:22:57;32.30;59.20
15143;DHT22;7672;50.834;6.286;2023-06-04T11:25:27;32.30;58.30
15143;DHT22;7672;50.834;6.286;2023-06-04T11:27:55;32.40;59.10
15143;DHT22;7672;50.834;6.286;2023-06-04T11:30:24;32.50;57.90
15143;DHT22;7672;50.834;6.286;2023-06-04T11:33:00;32.50;58.50
15143;DHT22;7672;50.834;6.286;2023-06-04T11:35:39;32.50;57.70
15143;DHT22;7672;50.834;6.286;2023-06-04T11:38:08;32.50;59.50
15143;DHT22;7672;50.834;6.286;2023-06-04T11:40:36;32.30;59.50
15143;DHT22;7672;50.834;6.286;2023-06-04T11:43:03;32.30;58.30
15143;DHT22;7672;50.834;6.286;2023-06-04T11:45:30;32.20;58.40
15143;DHT22;7672;50.834;6.286;2023-06-04T11:47:58;32.00;57.00
15143;DHT22;7672;50.834;6.286;2023-06-04T11:50:29;31.90;58.30
15143;DHT22;7672;50.834;6.286;2023-06-04T11:52:56;31.60;58.50
15143;DHT22;7672;50.834;6.286;2023-06-04T11:55:24;31.40;57.90
15143;DHT22;7672;50.834;6.286;2023-06-04T11:57:53;31.30;59.20
15143;DHT22;7672;50.834;6.286;2023-06-04T12:00:21;31.20;58.70
15143;DHT22;7672;50.834;6.286;2023-06-04T12:02:55;31.10;58.20
15143;DHT22;7672;50.834;6.286;2023-06-04T12:05:30;31.00;59.30
15143;DHT22;7672;50.834;6.286;2023-06-04T12:08:06;30.90;59.90
15143;DHT22;7672;50.834;6.286;2023-06-04T12:10:43;30.80;60.60
15143;DHT22;7672;50.834;6.286;2023-06-04T12:13:10;30.80;58.90
15143;DHT22;7672;50.834;6.286;2023-06-04T12:15:38;30.70;59.20
15143;DHT22;7672;50.834;6.286;2023-06-04T12:18:06;30.60;58.30
15143;DHT22;7672;50.834;6.286;2023-06-04T12:20:38;30.50;60.00
15143;DHT22;7672;50.834;6.286;2023-06-04T12:23:06;30.40;58.90
15143;DHT22;7672;50.834;6.286;2023-06-04T12:25:49;30.40;59.50
15143;DHT22;7672;50.834;6.286;2023-06-04T12:28:26;30.20;59.10
15143;DHT22;7672;50.834;6.286;2023-06-04T12:30:53;30.10;59.70
15143;DHT22;7672;50.834;6.286;2023-06-04T12:33:21;29.90;58.90
15143;DHT22;7672;50.834;6.286;2023-06-04T12:35:48;29.80;59.40
15143;DHT22;7672;50.834;6.286;2023-06-04T12:38:15;29.70;58.30
15143;DHT22;7672;50.834;6.286;2023-06-04T12:40:45;29.60;58.00
15143;DHT22;7672;50.834;6.286;2023-06-04T12:43:12;29.50;58.20
15143;DHT22;7672;50.834;6.286;2023-06-04T12:45:39;29.40;59.60
15143;DHT22;7672;50.834;6.286;2023-06-04T12:48:06;29.30;59.90
15143;DHT22;7672;50.834;6.286;2023-06-04T12:50:33;29.10;59.90
15143;DHT22;7672;50.834;6.286;2023-06-04T12:53:00;29.10;60.70
15143;DHT22;7672;50.834;6.286;2023-06-04T12:55:33;29.10;59.70
15143;DHT22;7672;50.834;6.286;2023-06-04T12:58:30;29.00;60.20
15143;DHT22;7672;50.834;6.286;2023-06-04T13:01:53;28.90;60.20
15143;DHT22;7672;50.834;6.286;2023-06-04T13:04:23;28.90;62.30
15143;DHT22;7672;50.834;6.286;2023-06-04T13:06:53;28.80;61.80
15143;DHT22;7672;50.834;6.286;2023-06-04T13:09:26;28.70;61.10
15143;DHT22;7672;50.834;6.286;2023-06-04T13:11:57;28.70;60.70
15143;DHT22;7672;50.834;6.286;2023-06-04T13:14:24;28.60;61.00
15143;DHT22;7672;50.834;6.286;2023-06-04T13:16:51;28.60;61.60
15143;DHT22;7672;50.834;6.286;2023-06-04T13:19:19;28.50;61.10
15143;DHT22;7672;50.834;6.286;2023-06-04T13:21:50;28.50;61.00
15143;DHT22;7672;50.834;6.286;2023-06-04T13:24:17;28.40;62.00
15143;DHT22;7672;50.834;6.286;2023-06-04T13:26:44;28.40;61.80
15143;DHT22;7672;50.834;6.286;2023-06-04T13:29:11;28.40;62.50
15143;DHT22;7672;50.834;6.286;2023-06-04T13:31:40;28.30;63.10
15143;DHT22;7672;50.834;6.286;2023-06-04T13:34:08;28.20;61.00
15143;DHT22;7672;50.834;6.286;2023-06-04T13:36:54;28.30;64.30
15143;DHT22;7672;50.834;6.286;2023-06-04T13:39:22;28.40;62.10
15143;DHT22;7672;50.834;6.286;2023-06-04T13:41:52;28.20;61.20
15143;DHT22;7672;50.834;6.286;2023-06-04T13:44:20;28.30;61.90
15143;DHT22;7672;50.834;6.286;2023-06-04T13:46:53;28.10;66.20
15143;DHT22;7672;50.834;6.286;2023-06-04T13:49:20;28.20;63.90
15143;DHT22;7672;50.834;6.286;2023-06-04T13:51:48;28.20;62.70
15143;DHT22;7672;50.834;6.286;2023-06-04T13:54:15;28.30;62.90
15143;DHT22;7672;50.834;6.286;2023-06-04T13:56:45;28.40;62.60
15143;DHT22;7672;50.834;6.286;2023-06-04T13:59:12;28.40;62.10
15143;DHT22;7672;50.834;6.286;2023-06-04T14:01:40;28.40;61.70
15143;DHT22;7672;50.834;6.286;2023-06-04T14:04:07;28.40;61.50
15143;DHT22;7672;50.834;6.286;2023-06-04T14:06:37;28.30;63.40
15143;DHT22;7672;50.834;6.286;2023-06-04T14:09:04;28.30;63.00
15143;DHT22;7672;50.834;6.286;2023-06-04T14:11:35;28.30;63.90
15143;DHT22;7672;50.834;6.286;2023-06-04T14:14:04;28.20;62.80
15143;DHT22;7672;50.834;6.286;2023-06-04T14:16:31;28.20;61.90
15143;DHT22;7672;50.834;6.286;2023-06-04T14:18:58;28.10;63.40
15143;DHT22;7672;50.834;6.286;2023-06-04T14:21:26;28.10;61.80
15143;DHT22;7672;50.834;6.286;2023-06-04T14:23:53;28.00;64.20
15143;DHT22;7672;50.834;6.286;2023-06-04T14:26:20;28.00;62.80
15143;DHT22;7672;50.834;6.286;2023-06-04T14:28:49;27.90;62.80
15143;DHT22;7672;50.834;6.286;2023-06-04T14:31:16;27.90;65.70
15143;DHT22;7672;50.834;6.286;2023-06-04T14:33:43;27.80;64.80
15143;DHT22;7672;50.834;6.286;2023-06-04T14:36:10;27.80;63.40
15143;DHT22;7672;50.834;6.286;2023-06-04T14:38:40;27.70;63.40
15143;DHT22;7672;50.834;6.286;2023-06-04T14:41:20;27.70;63.00
15143;DHT22;7672;50.834;6.286;2023-06-04T14:43:47;27.80;64.50
15143;DHT22;7672;50.834;6.286;2023-06-04T14:46:14;27.70;63.00
15143;DHT22;7672;50.834;6.286;2023-06-04T14:48:41;27.70;63.30
15143;DHT22;7672;50.834;6.286;2023-06-04T14:51:08;27.60;63.10
15143;DHT22;7672;50.834;6.286;2023-06-04T14:53:36;27.60;62.70
15143;DHT22;7672;50.834;6.286;2023-06-04T14:56:06;27.60;64.60
15143;DHT22;7672;50.834;6.286;2023-06-04T14:58:33;27.60;63.30
15143;DHT22;7672;50.834;6.286;2023-06-04T15:01:00;27.60;63.00
15143;DHT22;7672;50.834;6.286;2023-06-04T15:03:30;27.50;62.90
15143;DHT22;7672;50.834;6.286;2023-06-04T15:05:57;27.50;62.30
15143;DHT22;7672;50.834;6.286;2023-06-04T15:08:44;27.40;62.50
15143;DHT22;7672;50.834;6.286;2023-06-04T15:11:11;27.30;63.80
15143;DHT22;7672;50.834;6.286;2023-06-04T15:13:40;27.30;63.70
15143;DHT22;7672;50.834;6.286;2023-06-04T15:16:07;27.20;63.80
15143;DHT22;7672;50.834;6.286;2023-06-04T15:18:34;27.20;63.30
15143;DHT22;7672;50.834;6.286;2023-06-04T15:21:02;27.10;62.80
15143;DHT22;7672;50.834;6.286;2023-06-04T15:23:29;27.00;63.10
15143;DHT22;7672;50.834;6.286;2023-06-04T15:25:56;27.00;62.10
15143;DHT22;7672;50.834;6.286;2023-06-04T15:28:23;26.90;63.70
15143;DHT22;7672;50.834;6.286;2023-06-04T15:30:50;26.90;64.10
15143;DHT22;7672;50.834;6.286;2023-06-04T15:33:17;26.80;64.00
15143;DHT22;7672;50.834;6.286;2023-06-04T15:35:45;26.70;65.90
15143;DHT22;7672;50.834;6.286;2023-06-04T15:38:12;26.70;64.80
15143;DHT22;7672;50.834;6.286;2023-06-04T15:40:39;26.60;65.10
15143;DHT22;7672;50.834;6.286;2023-06-04T15:43:06;26.50;63.90
15143;DHT22;7672;50.834;6.286;2023-06-04T15:45:33;26.50;63.10
15143;DHT22;7672;50.834;6.286;2023-06-04T15:48:00;26.50;62.40
15143;DHT22;7672;50.834;6.286;2023-06-04T15:50:27;26.30;64.40
15143;DHT22;7672;50.834;6.286;2023-06-04T15:52:55;26.30;63.70
15143;DHT22;7672;50.834;6.286;2023-06-04T15:55:22;26.20;62.30
15143;DHT22;7672;50.834;6.286;2023-06-04T15:57:49;26.20;63.40
15143;DHT22;7672;50.834;6.286;2023-06-04T16:00:17;26.10;63.20